createdAt,value
2019-05-05T00:00:07.255Z,0
2019-05-05T00:01:19.405Z,0
2019-05-05T00:02:31.595Z,0
2019-05-05T00:03:43.714Z,0
2019-05-05T00:04:56.013Z,0
2019-05-05T00:06:08.099Z,0
2019-05-05T00:07:21.463Z,0
2019-05-05T00:08:32.536Z,0
2019-05-05T00:09:44.755Z,0
2019-05-05T00:11:00.014Z,0
2019-05-05T00:12:09.166Z,0
2019-05-05T00:13:21.452Z,0
2019-05-05T00:14:33.474Z,0
2019-05-05T00:15:45.683Z,0
2019-05-05T00:16:57.861Z,0
2019-05-05T00:18:10.065Z,0
2019-05-05T00:19:22.265Z,0
2019-05-05T00:20:34.480Z,0
2019-05-05T00:21:46.618Z,0
2019-05-05T00:22:58.926Z,0
2019-05-05T00:24:11.472Z,0
2019-05-05T00:25:23.704Z,0
2019-05-05T00:26:35.403Z,0
2019-05-05T00:27:47.632Z,0
2019-05-05T00:28:59.867Z,0
2019-05-05T00:30:12.016Z,0
2019-05-05T00:31:24.274Z,0
2019-05-05T00:32:36.504Z,0
2019-05-05T00:33:48.682Z,0
2019-05-05T00:35:00.827Z,0
2019-05-05T00:36:13.150Z,0
2019-05-05T00:37:25.269Z,0
2019-05-05T00:38:37.369Z,0
2019-05-05T00:39:49.691Z,0
2019-05-05T00:41:01.823Z,0
2019-05-05T00:42:13.973Z,0
2019-05-05T00:43:26.163Z,0
2019-05-05T00:44:38.463Z,0
2019-05-05T00:45:50.672Z,0
2019-05-05T00:47:02.717Z,0
2019-05-05T00:48:14.942Z,0
2019-05-05T00:49:27.293Z,0
2019-05-05T00:50:39.317Z,0
2019-05-05T00:51:51.783Z,0
2019-05-05T00:53:03.708Z,0
2019-05-05T00:54:16.001Z,0
2019-05-05T00:56:40.288Z,0
2019-05-05T00:57:52.594Z,0
2019-05-05T00:59:04.842Z,0
2019-05-05T01:00:16.874Z,0
2019-05-05T01:01:29.275Z,0
2019-05-05T01:02:41.429Z,0
2019-05-05T01:03:53.577Z,0
2019-05-05T01:05:05.673Z,0
2019-05-05T01:06:17.976Z,0
2019-05-05T01:07:30.076Z,0
2019-05-05T01:08:42.286Z,0
2019-05-05T01:09:54.527Z,0
2019-05-05T01:11:06.746Z,0
2019-05-05T01:12:18.929Z,0
2019-05-05T01:13:31.131Z,0
2019-05-05T01:14:43.256Z,0
2019-05-05T01:15:55.484Z,0
2019-05-05T01:17:07.763Z,0
2019-05-05T01:18:19.819Z,0
2019-05-05T01:19:32.082Z,0
2019-05-05T01:20:44.291Z,0
2019-05-05T01:21:56.403Z,0
2019-05-05T01:23:08.604Z,0
2019-05-05T01:24:20.845Z,0
2019-05-05T01:25:34.554Z,0
2019-05-05T01:26:45.483Z,0
2019-05-05T01:27:57.472Z,0
2019-05-05T01:29:09.608Z,0
2019-05-05T01:30:21.923Z,0
2019-05-05T01:31:34.008Z,0
2019-05-05T01:32:47.422Z,0
2019-05-05T01:33:58.476Z,0
2019-05-05T01:35:10.661Z,0
2019-05-05T01:36:22.976Z,0
2019-05-05T01:37:35.038Z,0
2019-05-05T01:38:47.151Z,0
2019-05-05T01:39:59.441Z,0
2019-05-05T01:41:11.603Z,0
2019-05-05T01:42:23.726Z,0
2019-05-05T01:43:35.916Z,0
2019-05-05T01:44:48.112Z,0
2019-05-05T01:46:00.456Z,0
2019-05-05T01:47:12.525Z,0
2019-05-05T01:48:24.872Z,0
2019-05-05T01:49:37.010Z,0
2019-05-05T01:50:49.618Z,0
2019-05-05T01:52:01.377Z,0
2019-05-05T01:53:13.562Z,0
2019-05-05T01:54:25.809Z,0
2019-05-05T01:55:38.139Z,0
2019-05-05T01:56:50.075Z,0
2019-05-05T01:58:02.270Z,0
2019-05-05T01:59:14.506Z,0
2019-05-05T02:00:26.758Z,0
2019-05-05T02:01:39.037Z,0
2019-05-05T02:02:51.700Z,0
2019-05-05T02:04:03.285Z,0
2019-05-05T02:05:15.663Z,0
2019-05-05T02:06:27.660Z,0
2019-05-05T02:07:39.875Z,0
2019-05-05T02:08:52.107Z,0
2019-05-05T02:10:04.286Z,0
2019-05-05T02:11:16.486Z,0
2019-05-05T02:12:28.666Z,0
2019-05-05T02:13:40.925Z,0
2019-05-05T02:14:53.039Z,0
2019-05-05T02:16:05.200Z,0
2019-05-05T02:17:17.481Z,0
2019-05-05T02:18:29.668Z,0
2019-05-05T02:19:41.830Z,0
2019-05-05T02:20:54.680Z,0
2019-05-05T02:22:06.255Z,0
2019-05-05T02:23:18.402Z,0
2019-05-05T02:24:30.578Z,0
2019-05-05T02:25:43.010Z,0
2019-05-05T02:26:54.962Z,0
2019-05-05T02:28:07.382Z,0
2019-05-05T02:29:19.368Z,0
2019-05-05T02:30:31.628Z,0
2019-05-05T02:31:43.857Z,0
2019-05-05T02:32:55.953Z,0
2019-05-05T02:34:08.421Z,0
2019-05-05T02:35:20.357Z,0
2019-05-05T02:36:32.684Z,0
2019-05-05T02:37:44.825Z,0
2019-05-05T02:38:56.958Z,0
2019-05-05T02:40:09.123Z,0
2019-05-05T02:41:21.417Z,0
2019-05-05T02:42:33.553Z,0
2019-05-05T02:43:45.885Z,0
2019-05-05T02:44:57.902Z,0
2019-05-05T02:46:10.283Z,0
2019-05-05T02:47:22.336Z,0
2019-05-05T02:48:34.766Z,0
2019-05-05T02:49:46.808Z,0
2019-05-05T02:50:58.917Z,0
2019-05-05T02:52:11.086Z,0
2019-05-05T02:53:23.368Z,0
2019-05-05T02:54:35.476Z,0
2019-05-05T02:55:47.762Z,0
2019-05-05T02:56:59.954Z,0
2019-05-05T02:58:12.070Z,0
2019-05-05T02:59:24.368Z,0
2019-05-05T03:00:37.982Z,0
2019-05-05T03:01:48.739Z,0
2019-05-05T03:03:00.855Z,0
2019-05-05T03:04:13.046Z,0
2019-05-05T03:05:25.232Z,0
2019-05-05T03:06:37.430Z,0
2019-05-05T03:07:49.625Z,0
2019-05-05T03:09:01.820Z,0
2019-05-05T03:10:14.020Z,0
2019-05-05T03:11:26.279Z,0
2019-05-05T03:12:38.454Z,0
2019-05-05T03:13:50.744Z,0
2019-05-05T03:15:02.813Z,0
2019-05-05T03:16:15.400Z,0
2019-05-05T03:17:27.182Z,0
2019-05-05T03:18:39.434Z,0
2019-05-05T03:19:51.922Z,0
2019-05-05T03:21:03.790Z,0
2019-05-05T03:22:15.974Z,0
2019-05-05T03:23:28.270Z,0
2019-05-05T03:24:40.476Z,4
2019-05-05T03:25:54.062Z,4
2019-05-05T03:27:05.725Z,0
2019-05-05T03:28:17.037Z,4
2019-05-05T03:29:29.136Z,4
2019-05-05T03:30:41.462Z,4
2019-05-05T03:31:53.750Z,8
2019-05-05T03:33:05.846Z,8
2019-05-05T03:34:18.067Z,8
2019-05-05T03:35:30.140Z,8
2019-05-05T03:36:42.337Z,12
2019-05-05T03:37:54.697Z,12
2019-05-05T03:39:06.706Z,16
2019-05-05T03:40:18.961Z,16
2019-05-05T03:41:31.157Z,16
2019-05-05T03:42:43.301Z,24
2019-05-05T03:43:55.495Z,28
2019-05-05T03:45:07.710Z,28
2019-05-05T03:46:19.967Z,32
2019-05-05T03:47:32.105Z,40
2019-05-05T03:48:44.277Z,48
2019-05-05T03:49:56.707Z,52
2019-05-05T03:51:08.692Z,60
2019-05-05T03:52:20.894Z,64
2019-05-05T03:53:33.124Z,76
2019-05-05T03:54:45.247Z,84
2019-05-05T03:55:57.535Z,100
2019-05-05T03:57:09.651Z,112
2019-05-05T03:58:22.225Z,128
2019-05-05T03:59:34.156Z,144
2019-05-05T04:00:46.277Z,164
2019-05-05T04:01:58.560Z,180
2019-05-05T04:03:10.626Z,200
2019-05-05T04:04:23.030Z,216
2019-05-05T04:05:35.013Z,240
2019-05-05T04:06:47.219Z,272
2019-05-05T04:07:59.518Z,304
2019-05-05T04:09:11.787Z,340
2019-05-05T04:10:23.830Z,368
2019-05-05T04:11:36.063Z,408
2019-05-05T04:12:48.274Z,436
2019-05-05T04:14:00.519Z,472
2019-05-05T04:15:12.597Z,512
2019-05-05T04:16:24.812Z,540
2019-05-05T04:17:37.065Z,576
2019-05-05T04:18:52.802Z,616
2019-05-05T04:20:01.459Z,652
2019-05-05T04:21:13.966Z,664
2019-05-05T04:22:25.918Z,680
2019-05-05T04:23:37.956Z,700
2019-05-05T04:24:50.171Z,752
2019-05-05T04:26:02.816Z,812
2019-05-05T04:27:14.724Z,868
2019-05-05T04:28:26.733Z,916
2019-05-05T04:29:39.140Z,980
2019-05-05T04:30:51.159Z,1076
2019-05-05T04:32:03.370Z,1124
2019-05-05T04:33:15.736Z,1216
2019-05-05T04:34:27.892Z,1304
2019-05-05T04:35:39.907Z,1384
2019-05-05T04:36:52.186Z,1412
2019-05-05T04:38:04.422Z,1432
2019-05-05T04:39:16.583Z,1504
2019-05-05T04:40:28.765Z,1492
2019-05-05T04:41:40.900Z,1448
2019-05-05T04:42:53.136Z,1372
2019-05-05T04:44:05.273Z,1412
2019-05-05T04:45:17.472Z,1476
2019-05-05T04:46:29.690Z,1544
2019-05-05T04:47:41.944Z,1664
2019-05-05T04:48:54.111Z,1776
2019-05-05T04:50:06.440Z,1780
2019-05-05T04:51:18.598Z,1880
2019-05-05T04:52:30.683Z,1924
2019-05-05T04:53:45.081Z,1968
2019-05-05T04:54:57.901Z,2076
2019-05-05T04:56:07.617Z,2100
2019-05-05T04:57:19.503Z,2276
2019-05-05T04:58:31.743Z,2484
2019-05-05T04:59:43.993Z,2668
2019-05-05T05:00:56.009Z,2672
2019-05-05T05:02:08.442Z,2772
2019-05-05T05:03:20.467Z,2716
2019-05-05T05:04:32.637Z,2488
2019-05-05T05:05:44.906Z,2112
2019-05-05T05:06:56.984Z,2200
2019-05-05T05:08:09.238Z,2316
2019-05-05T05:09:21.438Z,2440
2019-05-05T05:10:33.651Z,2364
2019-05-05T05:11:45.766Z,2436
2019-05-05T05:12:58.011Z,2376
2019-05-05T05:14:10.258Z,2152
2019-05-05T05:15:22.711Z,1820
2019-05-05T05:16:34.684Z,1672
2019-05-05T05:17:46.783Z,1572
2019-05-05T05:18:58.991Z,1748
2019-05-05T05:20:11.249Z,2080
2019-05-05T05:21:23.392Z,2136
2019-05-05T05:22:35.545Z,2136
2019-05-05T05:23:47.769Z,2332
2019-05-05T05:24:59.980Z,2632
2019-05-05T05:26:12.270Z,2824
2019-05-05T05:27:24.313Z,2772
2019-05-05T05:28:37.791Z,2620
2019-05-05T05:29:48.703Z,2812
2019-05-05T05:31:00.945Z,2908
2019-05-05T05:32:13.119Z,2884
2019-05-05T05:33:25.308Z,2736
2019-05-05T05:34:37.602Z,2296
2019-05-05T05:35:51.064Z,1868
2019-05-05T05:37:01.906Z,1668
2019-05-05T05:38:14.232Z,1572
2019-05-05T05:39:26.285Z,1572
2019-05-05T05:40:38.548Z,1764
2019-05-05T05:41:50.802Z,1820
2019-05-05T05:43:02.876Z,2432
2019-05-05T05:44:15.076Z,3212
2019-05-05T05:45:27.250Z,3884
2019-05-05T05:46:39.530Z,4420
2019-05-05T05:47:52.100Z,4712
2019-05-05T05:49:03.840Z,4252
2019-05-05T05:51:28.253Z,3032
2019-05-05T05:52:40.471Z,2936
2019-05-05T05:53:53.057Z,3212
2019-05-05T05:55:04.860Z,2764
2019-05-05T05:56:17.096Z,2284
2019-05-05T05:57:29.225Z,2728
2019-05-05T05:58:41.398Z,2776
2019-05-05T05:59:53.632Z,2856
2019-05-05T06:01:05.775Z,2852
2019-05-05T06:02:21.125Z,3324
2019-05-05T06:03:30.169Z,4428
2019-05-05T06:04:42.362Z,4860
2019-05-05T06:05:54.599Z,5652
2019-05-05T06:07:06.959Z,6860
2019-05-05T06:08:19.060Z,6840
2019-05-05T06:09:31.153Z,7700
2019-05-05T06:10:43.353Z,8328
2019-05-05T06:11:55.535Z,7796
2019-05-05T06:13:07.771Z,8308
2019-05-05T06:14:20.023Z,7544
2019-05-05T06:15:32.246Z,7256
2019-05-05T06:16:44.459Z,6284
2019-05-05T06:17:56.512Z,6400
2019-05-05T06:19:08.696Z,7572
2019-05-05T06:20:20.961Z,9612
2019-05-05T06:21:33.118Z,10100
2019-05-05T06:22:45.322Z,9756
2019-05-05T06:23:57.470Z,9940
2019-05-05T06:25:09.703Z,9248
2019-05-05T06:26:21.933Z,7488
2019-05-05T06:27:34.078Z,6704
2019-05-05T06:28:46.241Z,6400
2019-05-05T06:29:58.510Z,6620
2019-05-05T06:31:10.629Z,6512
2019-05-05T06:32:22.865Z,6768
2019-05-05T06:33:35.085Z,7356
2019-05-05T06:34:47.226Z,7048
2019-05-05T06:35:59.402Z,6524
2019-05-05T06:37:11.600Z,4360
2019-05-05T06:38:24.102Z,4636
2019-05-05T06:39:35.974Z,3784
2019-05-05T06:40:51.153Z,3720
2019-05-05T06:42:00.399Z,2988
2019-05-05T06:43:12.756Z,2612
2019-05-05T06:44:24.811Z,1996
2019-05-05T06:45:37.102Z,2184
2019-05-05T06:46:49.141Z,1900
2019-05-05T06:48:01.358Z,2008
2019-05-05T06:49:13.660Z,2740
2019-05-05T06:50:25.823Z,3060
2019-05-05T06:51:37.918Z,2644
2019-05-05T06:52:50.116Z,2296
2019-05-05T06:54:02.407Z,3268
2019-05-05T06:55:14.495Z,4080
2019-05-05T06:56:26.856Z,3792
2019-05-05T06:57:38.908Z,3556
2019-05-05T06:58:51.086Z,4320
2019-05-05T07:00:03.285Z,4868
2019-05-05T07:01:15.521Z,4840
2019-05-05T07:02:27.787Z,6200
2019-05-05T07:03:39.859Z,6512
2019-05-05T07:04:52.142Z,7536
2019-05-05T07:06:04.282Z,7260
2019-05-05T07:07:16.453Z,5472
2019-05-05T07:08:28.656Z,4376
2019-05-05T07:09:40.985Z,4804
2019-05-05T07:10:53.040Z,3764
2019-05-05T07:12:05.245Z,3412
2019-05-05T07:13:17.451Z,2540
2019-05-05T07:14:29.988Z,2512
2019-05-05T07:15:41.945Z,2964
2019-05-05T07:16:54.121Z,2748
2019-05-05T07:18:06.228Z,2616
2019-05-05T07:19:18.395Z,2228
2019-05-05T07:20:31.192Z,1740
2019-05-05T07:21:44.149Z,1824
2019-05-05T07:22:55.006Z,2684
2019-05-05T07:24:07.201Z,3332
2019-05-05T07:25:19.436Z,3592
2019-05-05T07:26:34.749Z,3884
2019-05-05T07:27:43.812Z,3884
2019-05-05T07:28:55.989Z,4112
2019-05-05T07:30:08.241Z,4908
2019-05-05T07:31:20.375Z,4716
2019-05-05T07:32:32.611Z,4228
2019-05-05T07:33:44.749Z,5004
2019-05-05T07:34:56.904Z,5892
2019-05-05T07:36:09.203Z,5968
2019-05-05T07:37:21.331Z,5676
2019-05-05T07:38:33.698Z,5400
2019-05-05T07:39:45.686Z,5576
2019-05-05T07:40:57.931Z,5556
2019-05-05T07:42:10.082Z,6732
2019-05-05T07:43:22.287Z,8316
2019-05-05T07:44:34.480Z,7904
2019-05-05T07:45:46.731Z,8956
2019-05-05T07:46:58.873Z,9600
2019-05-05T07:48:11.047Z,8568
2019-05-05T07:49:23.361Z,7224
2019-05-05T07:50:35.793Z,14420
2019-05-05T07:51:47.675Z,17568
2019-05-05T07:52:59.800Z,18528
2019-05-05T07:54:11.993Z,23168
2019-05-05T07:55:24.423Z,22240
2019-05-05T07:56:36.443Z,13628
2019-05-05T07:57:48.656Z,14012
2019-05-05T07:59:00.774Z,20928
2019-05-05T08:00:13.054Z,63840
2019-05-05T08:01:25.159Z,34976
2019-05-05T08:02:37.556Z,17024
2019-05-05T08:03:49.547Z,24928
2019-05-05T08:05:01.755Z,40768
2019-05-05T08:06:14.043Z,37248
2019-05-05T08:07:26.132Z,29856
2019-05-05T08:08:41.985Z,14772
2019-05-05T08:09:50.623Z,13836
2019-05-05T08:11:02.780Z,9372
2019-05-05T08:12:15.052Z,8520
2019-05-05T08:13:27.280Z,6536
2019-05-05T08:14:39.397Z,17984
2019-05-05T08:15:51.841Z,24160
2019-05-05T08:17:03.724Z,36128
2019-05-05T08:18:15.947Z,32384
2019-05-05T08:19:28.076Z,48384
2019-05-05T08:20:40.534Z,64576
2019-05-05T08:21:52.713Z,73824
2019-05-05T08:23:04.783Z,73120
2019-05-05T08:24:16.911Z,73664
2019-05-05T08:25:29.291Z,74272
2019-05-05T08:26:41.360Z,76480
2019-05-05T08:27:53.608Z,35520
2019-05-05T08:29:05.632Z,66336
2019-05-05T08:30:18.358Z,41824
2019-05-05T08:31:30.016Z,20960
2019-05-05T08:32:42.550Z,17312
2019-05-05T08:33:54.419Z,15076
2019-05-05T08:35:06.874Z,22816
2019-05-05T08:36:18.925Z,43648
2019-05-05T08:37:31.094Z,16544
2019-05-05T08:38:43.395Z,11484
2019-05-05T08:39:55.373Z,16512
2019-05-05T08:41:07.652Z,24448
2019-05-05T08:42:19.858Z,17344
2019-05-05T08:43:37.012Z,34496
2019-05-05T08:44:44.225Z,86208
2019-05-05T08:45:56.311Z,20960
2019-05-05T08:47:08.734Z,20576
2019-05-05T08:48:20.706Z,58816
2019-05-05T08:49:32.984Z,37248
2019-05-05T08:50:45.223Z,87392
2019-05-05T08:51:57.709Z,42336
2019-05-05T08:53:09.618Z,36192
2019-05-05T08:54:21.888Z,91776
2019-05-05T08:55:34.171Z,27840
2019-05-05T08:56:46.231Z,14556
2019-05-05T08:57:58.344Z,16640
2019-05-05T08:59:10.969Z,35616
2019-05-05T09:00:22.770Z,75264
2019-05-05T09:01:35.129Z,15504
2019-05-05T09:02:47.211Z,16992
2019-05-05T09:03:59.233Z,14364
2019-05-05T09:05:11.517Z,12096
2019-05-05T09:06:23.782Z,9152
2019-05-05T09:07:35.814Z,6704
2019-05-05T09:08:48.104Z,6492
2019-05-05T09:10:00.281Z,8224
2019-05-05T09:11:12.660Z,14364
2019-05-05T09:12:24.844Z,25216
2019-05-05T09:13:37.003Z,30528
2019-05-05T09:14:49.208Z,34432
2019-05-05T09:16:01.285Z,86080
2019-05-05T09:17:13.492Z,89888
2019-05-05T09:18:25.835Z,58240
2019-05-05T09:19:37.880Z,86304
2019-05-05T09:20:50.062Z,91936
2019-05-05T09:22:02.197Z,36224
2019-05-05T09:23:14.322Z,33664
2019-05-05T09:24:26.653Z,28224
2019-05-05T09:25:39.094Z,18880
2019-05-05T09:26:51.078Z,19040
2019-05-05T09:28:03.198Z,49248
2019-05-05T09:29:15.370Z,16512
2019-05-05T09:30:27.507Z,11888
2019-05-05T09:31:39.683Z,8888
2019-05-05T09:32:51.944Z,6972
2019-05-05T09:34:04.071Z,5424
2019-05-05T09:35:16.385Z,4196
2019-05-05T09:36:28.582Z,3716
2019-05-05T09:37:40.667Z,3296
2019-05-05T09:38:52.961Z,3464
2019-05-05T09:40:05.157Z,3716
2019-05-05T09:41:17.252Z,4040
2019-05-05T09:42:29.628Z,4876
2019-05-05T09:43:41.634Z,5836
2019-05-05T09:44:55.582Z,6632
2019-05-05T09:46:06.042Z,7420
2019-05-05T09:47:18.947Z,8708
2019-05-05T09:48:30.422Z,10760
2019-05-05T09:49:42.601Z,14276
2019-05-05T09:50:54.981Z,30592
2019-05-05T09:52:07.955Z,110048
2019-05-05T09:53:19.253Z,85440
2019-05-05T09:54:31.405Z,76800
2019-05-05T09:55:43.953Z,81216
2019-05-05T09:56:55.876Z,80224
2019-05-05T09:58:07.998Z,90144
2019-05-05T09:59:20.125Z,94528
2019-05-05T10:00:32.560Z,96032
2019-05-05T10:01:44.789Z,102112
2019-05-05T10:02:56.810Z,101344
2019-05-05T10:04:09.113Z,104928
2019-05-05T10:05:21.159Z,101760
2019-05-05T10:06:33.393Z,105152
2019-05-05T10:07:45.782Z,102944
2019-05-05T10:08:57.681Z,104128
2019-05-05T10:10:10.269Z,101568
2019-05-05T10:11:22.162Z,101408
2019-05-05T10:12:34.593Z,97856
2019-05-05T10:13:46.554Z,96960
2019-05-05T10:14:58.794Z,95296
2019-05-05T10:16:10.989Z,96320
2019-05-05T10:17:23.100Z,55264
2019-05-05T10:18:35.336Z,15344
2019-05-05T10:19:47.602Z,9596
2019-05-05T10:20:59.657Z,7508
2019-05-05T10:22:12.010Z,6176
2019-05-05T10:23:24.153Z,5388
2019-05-05T10:24:36.203Z,5000
2019-05-05T10:25:49.090Z,4888
2019-05-05T10:27:01.114Z,4528
2019-05-05T10:28:12.766Z,4260
2019-05-05T10:29:24.978Z,4260
2019-05-05T10:30:37.155Z,4800
2019-05-05T10:31:49.386Z,5348
2019-05-05T10:33:01.569Z,6028
2019-05-05T10:34:13.852Z,6532
2019-05-05T10:35:25.931Z,6404
2019-05-05T10:36:39.138Z,6264
2019-05-05T10:37:52.507Z,6456
2019-05-05T10:39:02.658Z,6440
2019-05-05T10:40:14.710Z,6676
2019-05-05T10:41:29.620Z,7024
2019-05-05T10:42:39.087Z,7436
2019-05-05T10:43:51.286Z,8484
2019-05-05T10:45:03.477Z,9816
2019-05-05T10:46:15.682Z,8872
2019-05-05T10:47:27.979Z,9636
2019-05-05T10:48:40.073Z,9900
2019-05-05T10:49:52.451Z,8916
2019-05-05T10:51:04.642Z,7868
2019-05-05T10:52:16.795Z,7212
2019-05-05T10:53:28.929Z,8148
2019-05-05T10:54:41.107Z,9396
2019-05-05T10:55:56.163Z,11156
2019-05-05T10:57:05.449Z,13648
2019-05-05T10:58:17.608Z,16672
2019-05-05T10:59:30.005Z,20704
2019-05-05T11:00:42.007Z,24672
2019-05-05T11:01:54.456Z,31456
2019-05-05T11:03:06.605Z,39392
2019-05-05T11:04:18.686Z,34944
2019-05-05T11:05:30.800Z,44064
2019-05-05T11:06:43.075Z,36416
2019-05-05T11:07:55.160Z,76640
2019-05-05T11:09:07.351Z,82976
2019-05-05T11:10:19.561Z,89664
2019-05-05T11:11:31.747Z,96352
2019-05-05T11:12:48.058Z,97760
2019-05-05T11:13:56.548Z,99328
2019-05-05T11:15:08.603Z,96640
2019-05-05T11:16:20.541Z,98624
2019-05-05T11:17:35.801Z,95040
2019-05-05T11:18:44.958Z,95584
2019-05-05T11:19:57.199Z,94016
2019-05-05T11:21:15.300Z,93088
2019-05-05T11:22:21.523Z,89888
2019-05-05T11:23:33.843Z,87712
2019-05-05T11:24:46.005Z,85632
2019-05-05T11:25:58.470Z,84096
2019-05-05T11:27:10.447Z,84448
2019-05-05T11:28:22.476Z,89472
2019-05-05T11:29:34.794Z,89760
2019-05-05T11:30:47.096Z,88992
2019-05-05T11:31:59.197Z,86528
2019-05-05T11:33:11.312Z,88224
2019-05-05T11:34:23.576Z,78880
2019-05-05T11:35:35.616Z,32128
2019-05-05T11:36:47.807Z,14360
2019-05-05T11:38:00.054Z,15144
2019-05-05T11:39:12.395Z,15604
2019-05-05T11:40:24.428Z,16336
2019-05-05T11:41:36.644Z,15708
2019-05-05T11:42:48.890Z,14840
2019-05-05T11:44:01.060Z,11036
2019-05-05T11:45:13.353Z,9464
2019-05-05T11:46:25.399Z,8240
2019-05-05T11:47:37.656Z,8200
2019-05-05T11:48:49.743Z,8764
2019-05-05T11:50:02.107Z,11220
2019-05-05T11:51:14.263Z,14608
2019-05-05T11:52:26.544Z,14244
2019-05-05T11:53:38.549Z,12564
2019-05-05T11:54:50.775Z,11580
2019-05-05T11:56:05.102Z,10792
2019-05-05T11:57:16.434Z,12424
2019-05-05T11:58:27.396Z,16316
2019-05-05T11:59:39.872Z,19232
2019-05-05T12:00:51.884Z,21920
2019-05-05T12:02:03.960Z,22624
2019-05-05T12:03:16.210Z,20032
2019-05-05T12:04:28.444Z,17824
2019-05-05T12:05:40.503Z,16608
2019-05-05T12:06:52.804Z,14936
2019-05-05T12:08:04.852Z,13136
2019-05-05T12:09:17.038Z,10304
2019-05-05T12:10:29.303Z,7948
2019-05-05T12:11:41.802Z,6488
2019-05-05T12:12:53.646Z,5332
2019-05-05T12:14:05.991Z,4504
2019-05-05T12:15:18.100Z,4228
2019-05-05T12:16:30.266Z,4652
2019-05-05T12:17:42.420Z,5524
2019-05-05T12:18:54.680Z,5652
2019-05-05T12:20:06.897Z,5576
2019-05-05T12:21:19.075Z,5224
2019-05-05T12:22:31.158Z,5004
2019-05-05T12:23:43.725Z,5204
2019-05-05T12:24:55.547Z,5464
2019-05-05T12:26:10.765Z,5632
2019-05-05T12:27:20.016Z,6288
2019-05-05T12:28:32.187Z,7368
2019-05-05T12:29:44.421Z,8560
2019-05-05T12:30:56.647Z,9968
2019-05-05T12:32:08.730Z,11608
2019-05-05T12:33:21.035Z,12080
2019-05-05T12:34:33.240Z,11700
2019-05-05T12:35:45.516Z,11444
2019-05-05T12:36:57.537Z,11296
2019-05-05T12:38:09.799Z,12296
2019-05-05T12:39:21.995Z,13380
2019-05-05T12:40:34.153Z,14172
2019-05-05T12:41:46.343Z,14532
2019-05-05T12:42:58.826Z,14980
2019-05-05T12:44:10.674Z,16044
2019-05-05T12:45:23.413Z,17536
2019-05-05T12:46:35.043Z,18912
2019-05-05T12:47:47.319Z,19040
2019-05-05T12:48:59.476Z,18496
2019-05-05T12:50:11.715Z,17600
2019-05-05T12:51:23.992Z,16376
2019-05-05T12:52:36.130Z,15736
2019-05-05T12:53:48.239Z,15404
2019-05-05T12:55:00.506Z,14936
2019-05-05T12:56:12.620Z,14192
2019-05-05T12:57:24.862Z,14284
2019-05-05T12:58:36.987Z,14332
2019-05-05T12:59:49.248Z,13348
2019-05-05T13:01:01.438Z,11892
2019-05-05T13:02:13.575Z,11188
2019-05-05T13:03:25.833Z,11012
2019-05-05T13:04:38.153Z,10496
2019-05-05T13:05:50.167Z,9784
2019-05-05T13:07:02.435Z,9508
2019-05-05T13:08:14.574Z,9600
2019-05-05T13:09:26.817Z,11124
2019-05-05T13:10:38.907Z,12148
2019-05-05T13:11:51.193Z,12668
2019-05-05T13:13:03.440Z,11832
2019-05-05T13:15:27.800Z,9816
2019-05-05T13:16:39.977Z,9892
2019-05-05T13:17:52.063Z,9688
2019-05-05T13:20:16.502Z,11560
2019-05-05T13:21:28.652Z,12968
2019-05-05T13:22:40.883Z,14444
2019-05-05T13:23:53.133Z,14648
2019-05-05T13:25:06.659Z,14152
2019-05-05T13:26:23.775Z,14112
2019-05-05T13:27:29.747Z,14128
2019-05-05T13:28:42.046Z,15248
2019-05-05T13:29:54.107Z,15384
2019-05-05T13:31:06.486Z,15088
2019-05-05T13:32:18.485Z,15660
2019-05-05T13:33:30.647Z,16704
2019-05-05T13:34:42.985Z,16160
2019-05-05T13:35:54.966Z,15796
2019-05-05T13:37:07.480Z,15560
2019-05-05T13:38:23.655Z,15436
2019-05-05T13:39:31.669Z,15044
2019-05-05T13:40:43.830Z,14852
2019-05-05T13:41:56.022Z,15416
2019-05-05T13:43:08.720Z,15956
2019-05-05T13:44:20.374Z,16608
2019-05-05T13:45:32.685Z,16672
2019-05-05T13:46:44.776Z,16088
2019-05-05T13:47:57.077Z,15304
2019-05-05T13:49:09.129Z,14628
2019-05-05T13:50:21.580Z,13688
2019-05-05T13:51:33.603Z,12584
2019-05-05T13:52:45.795Z,11492
2019-05-05T13:53:57.865Z,10692
2019-05-05T13:55:10.298Z,10120
2019-05-05T13:56:22.302Z,9500
2019-05-05T13:57:34.793Z,8972
2019-05-05T13:58:46.634Z,8504
2019-05-05T13:59:58.997Z,8132
2019-05-05T14:01:11.098Z,7804
2019-05-05T14:02:23.221Z,7564
2019-05-05T14:03:35.573Z,7212
2019-05-05T14:04:47.817Z,6932
2019-05-05T14:06:05.979Z,6544
2019-05-05T14:07:12.041Z,6180
2019-05-05T14:08:24.229Z,5920
2019-05-05T14:09:36.918Z,5652
2019-05-05T14:10:48.689Z,5608
2019-05-05T14:12:00.829Z,5632
2019-05-05T14:13:12.961Z,5816
2019-05-05T14:14:25.275Z,6036
2019-05-05T14:15:37.459Z,6172
2019-05-05T14:16:50.067Z,6364
2019-05-05T14:18:01.828Z,6524
2019-05-05T14:19:14.004Z,6464
2019-05-05T14:20:26.252Z,6300
2019-05-05T14:21:38.628Z,6156
2019-05-05T14:22:51.217Z,6408
2019-05-05T14:24:02.922Z,6488
2019-05-05T14:25:14.903Z,6616
2019-05-05T14:26:33.402Z,6488
2019-05-05T14:27:39.399Z,6092
2019-05-05T14:28:51.773Z,5916
2019-05-05T14:30:03.797Z,7112
2019-05-05T14:31:16.016Z,7132
2019-05-05T14:32:28.059Z,6240
2019-05-05T14:33:40.395Z,5600
2019-05-05T14:34:52.609Z,5876
2019-05-05T14:36:05.143Z,6364
2019-05-05T14:37:16.844Z,6736
2019-05-05T14:38:29.120Z,6332
2019-05-05T14:39:41.323Z,5892
2019-05-05T14:40:53.470Z,5552
2019-05-05T14:42:05.713Z,5516
2019-05-05T14:43:17.914Z,4804
2019-05-05T14:44:30.046Z,4420
2019-05-05T14:45:42.528Z,4780
2019-05-05T14:46:54.474Z,4724
2019-05-05T14:48:06.795Z,4164
2019-05-05T14:49:18.896Z,4256
2019-05-05T14:50:31.003Z,4836
2019-05-05T14:51:43.289Z,5332
2019-05-05T14:52:55.357Z,4824
2019-05-05T14:54:07.575Z,4232
2019-05-05T14:55:19.799Z,4112
2019-05-05T14:56:32.184Z,4820
2019-05-05T14:57:44.255Z,5504
2019-05-05T14:58:56.410Z,5976
2019-05-05T15:00:08.597Z,6464
2019-05-05T15:01:20.713Z,6940
2019-05-05T15:02:33.012Z,7376
2019-05-05T15:03:45.211Z,7700
2019-05-05T15:04:57.396Z,8048
2019-05-05T15:06:09.485Z,8264
2019-05-05T15:07:21.715Z,8380
2019-05-05T15:08:35.160Z,8356
2019-05-05T15:09:46.167Z,8156
2019-05-05T15:10:58.265Z,7592
2019-05-05T15:12:10.492Z,7428
2019-05-05T15:13:22.712Z,7868
2019-05-05T15:14:34.930Z,8052
2019-05-05T15:15:47.169Z,8340
2019-05-05T15:16:59.833Z,8776
2019-05-05T15:18:11.539Z,8992
2019-05-05T15:19:23.706Z,8848
2019-05-05T15:20:35.833Z,8616
2019-05-05T15:21:48.084Z,8440
2019-05-05T15:23:00.265Z,8124
2019-05-05T15:25:24.944Z,7576
2019-05-05T15:26:36.976Z,7624
2019-05-05T15:27:49.219Z,7672
2019-05-05T15:29:01.257Z,7612
2019-05-05T15:30:13.457Z,7644
2019-05-05T15:31:25.607Z,7640
2019-05-05T15:32:37.909Z,7672
2019-05-05T15:33:50.054Z,7668
2019-05-05T15:35:02.167Z,7596
2019-05-05T15:36:14.426Z,7448
2019-05-05T15:37:26.562Z,7372
2019-05-05T15:38:39.232Z,7068
2019-05-05T15:39:51.025Z,6736
2019-05-05T15:41:03.141Z,6508
2019-05-05T15:42:15.326Z,6504
2019-05-05T15:43:27.630Z,6580
2019-05-05T15:44:39.880Z,6432
2019-05-05T15:45:52.171Z,6068
2019-05-05T15:47:04.280Z,5752
2019-05-05T15:48:16.682Z,5588
2019-05-05T15:49:28.516Z,5400
2019-05-05T15:50:40.773Z,5136
2019-05-05T15:51:52.980Z,4792
2019-05-05T15:53:05.311Z,4508
2019-05-05T15:54:17.323Z,4348
2019-05-05T15:55:29.592Z,4168
2019-05-05T15:56:41.669Z,3900
2019-05-05T15:57:53.877Z,3756
2019-05-05T15:59:06.065Z,3784
2019-05-05T16:00:18.382Z,4000
2019-05-05T16:01:30.446Z,4116
2019-05-05T16:02:42.688Z,3968
2019-05-05T16:03:55.085Z,3592
2019-05-05T16:05:07.250Z,3192
2019-05-05T16:06:19.313Z,2824
2019-05-05T16:07:31.521Z,2620
2019-05-05T16:08:43.690Z,2500
2019-05-05T16:09:55.882Z,2408
2019-05-05T16:11:08.013Z,2336
2019-05-05T16:12:20.455Z,2328
2019-05-05T16:13:32.461Z,2352
2019-05-05T16:15:59.877Z,2484
2019-05-05T16:17:09.080Z,2592
2019-05-05T16:18:21.179Z,2744
2019-05-05T16:19:33.473Z,3000
2019-05-05T16:20:45.600Z,3268
2019-05-05T16:21:58.053Z,3448